Time,TemperatureF,DewpointF,PressureIn,WindDirection,WindDirectionDegrees,WindSpeedMPH,WindSpeedGustMPH,Humidity,HourlyPrecipIn,Conditions,Clouds,dailyrainin,SoftwareType,DateUTC
2013-07-06 00:01:00,51.8,46.8,29.67,NE,53,0.0,5.0,83,0.00,,BKN001,0.45,VWS V14.00,2013-07-06 06:01:00,
2013-07-06 00:06:00,51.9,46.9,29.67,NE,53,0.0,1.0,83,0.00,,BKN001,0.00,VWS V14.00,2013-07-06 06:06:00,
2013-07-06 00:11:00,52.0,47.0,29.67,NE,53,0.0,1.0,83,0.00,,BKN001,0.00,VWS V14.00,2013-07-06 06:11:00,
2013-07-06 00:16:00,52.0,47.0,29.68,NE,53,0.0,1.0,83,0.00,,BKN001,0.00,VWS V14.00,2013-07-06 06:16:00,
2013-07-06 00:21:00,51.8,46.8,29.68,NE,53,0.0,1.0,83,0.00,,BKN001,0.00,VWS V14.00,2013-07-06 06:21:00,
2013-07-06 00:26:00,51.7,46.7,29.68,NE,53,0.0,1.0,83,0.00,,BKN001,0.00,VWS V14.00,2013-07-06 06:26:00,
2013-07-06 00:31:00,51.6,46.9,29.68,NE,52,0.0,1.0,84,0.00,,BKN001,0.00,VWS V14.00,2013-07-06 06:31:00,
2013-07-06 00:36:00,51.5,46.8,29.68,NE,53,2.0,2.0,84,0.00,,BKN001,0.00,VWS V14.00,2013-07-06 06:36:00,
2013-07-06 00:41:00,51.1,46.8,29.68,NE,53,0.0,4.0,85,0.00,,BKN001,0.00,VWS V14.00,2013-07-06 06:41:00,
2013-07-06 00:46:00,50.8,46.8,29.68,NE,53,0.0,4.0,86,0.00,,BKN001,0.00,VWS V14.00,2013-07-06 06:46:00,
2013-07-06 00:51:00,50.7,47.0,29.68,NE,53,0.0,4.0,87,0.00,,BKN001,0.00,VWS V14.00,2013-07-06 06:51:00,
2013-07-06 00:56:00,50.6,46.9,29.68,NE,52,0.0,4.0,87,0.00,,BKN001,0.00,VWS V14.00,2013-07-06 06:56:00,
2013-07-06 01:01:00,50.4,47.0,29.68,NE,53,0.0,4.0,88,0.00,,BKN001,0.00,VWS V14.00,2013-07-06 07:01:00,
2013-07-06 01:06:00,50.4,47.0,29.68,NE,52,0.0,2.0,88,0.00,,BKN001,0.00,VWS V14.00,2013-07-06 07:06:00,
2013-07-06 01:11:00,50.1,46.7,29.68,ENE,72,3.0,5.0,88,0.00,,BKN001,0.00,VWS V14.00,2013-07-06 07:11:00,
2013-07-06 01:16:00,50.0,46.6,29.68,ENE,72,0.0,5.0,88,0.00,,BKN001,0.00,VWS V14.00,2013-07-06 07:16:00,
2013-07-06 01:21:00,49.9,46.5,29.69,ENE,72,0.0,5.0,88,0.00,,BKN001,0.00,VWS V14.00,2013-07-06 07:21:00,
2013-07-06 01:26:00,49.7,46.6,29.68,ENE,72,0.0,5.0,89,0.00,,BKN001,0.00,VWS V14.00,2013-07-06 07:26:00,
2013-07-06 01:31:00,49.7,46.6,29.69,ENE,72,0.0,5.0,89,0.00,,BKN001,0.00,VWS V14.00,2013-07-06 07:31:00,
2013-07-06 01:36:00,49.4,46.3,29.69,ENE,72,2.0,2.0,89,0.00,,BKN001,0.00,VWS V14.00,2013-07-06 07:36:00,
2013-07-06 01:41:00,48.9,45.8,29.69,ENE,72,2.0,2.0,89,0.00,,BKN001,0.00,VWS V14.00,2013-07-06 07:41:00,
2013-07-06 01:46:00,48.6,45.8,29.69,ENE,72,0.0,3.0,90,0.00,,BKN001,0.00,VWS V14.00,2013-07-06 07:46:00,
2013-07-06 01:51:00,48.4,45.6,29.69,ENE,72,0.0,3.0,90,0.00,,BKN001,0.00,VWS V14.00,2013-07-06 07:51:00,
2013-07-06 01:56:00,48.3,45.5,29.69,ENE,72,0.0,3.0,90,0.00,,BKN001,0.00,VWS V14.00,2013-07-06 07:56:00,
2013-07-06 02:01:00,48.0,45.2,29.69,ENE,72,1.0,3.0,90,0.00,,BKN001,0.00,VWS V14.00,2013-07-06 08:01:00,
2013-07-06 02:06:00,47.8,45.3,29.70,ENE,72,0.0,0.0,91,0.00,,BKN001,0.00,VWS V14.00,2013-07-06 08:06:00,
2013-07-06 02:11:00,47.8,45.3,29.70,ENE,72,0.0,0.0,91,0.00,,BKN001,0.00,VWS V14.00,2013-07-06 08:11:00,
2013-07-06 02:16:00,47.4,44.9,29.70,ENE,72,0.0,1.0,91,0.00,,BKN001,0.00,VWS V14.00,2013-07-06 08:16:00,
2013-07-06 02:21:00,47.6,45.4,29.70,ENE,72,0.0,2.0,92,0.00,,BKN001,0.00,VWS V14.00,2013-07-06 08:21:00,
2013-07-06 02:26:00,47.4,45.2,29.70,ENE,72,0.0,2.0,92,0.00,,BKN001,0.00,VWS V14.00,2013-07-06 08:26:00,
2013-07-06 02:31:00,47.4,45.2,29.70,ENE,72,3.0,4.0,92,0.00,,BKN001,0.00,VWS V14.00,2013-07-06 08:31:00,
2013-07-06 02:36:00,47.5,45.3,29.70,SSE,153,4.0,4.0,92,0.00,,BKN001,0.00,VWS V14.00,2013-07-06 08:36:00,
2013-07-06 02:41:00,47.2,44.7,29.71,South,184,0.0,6.0,91,0.00,,BKN001,0.00,VWS V14.00,2013-07-06 08:41:00,
2013-07-06 02:46:00,46.9,44.4,29.71,South,184,3.0,6.0,91,0.00,,BKN001,0.00,VWS V14.00,2013-07-06 08:46:00,
2013-07-06 02:51:00,46.7,44.2,29.71,South,185,4.0,6.0,91,0.00,,BKN001,0.00,VWS V14.00,2013-07-06 08:51:00,
2013-07-06 02:56:00,46.5,44.0,29.71,South,185,0.0,6.0,91,0.00,,BKN001,0.00,VWS V14.00,2013-07-06 08:56:00,
2013-07-06 03:01:00,46.4,43.9,29.71,South,184,0.0,6.0,91,0.00,,BKN001,0.00,VWS V14.00,2013-07-06 09:01:00,
2013-07-06 03:06:00,46.3,43.8,29.72,East,80,1.0,1.0,91,0.00,,BKN001,0.00,VWS V14.00,2013-07-06 09:06:00,
2013-07-06 03:11:00,46.3,43.8,29.72,ENE,72,0.0,3.0,91,0.00,,BKN001,0.00,VWS V14.00,2013-07-06 09:11:00,
2013-07-06 03:16:00,46.3,43.8,29.72,ENE,72,0.0,3.0,91,0.00,,BKN001,0.00,VWS V14.00,2013-07-06 09:16:00,
2013-07-06 03:21:00,46.2,43.7,29.73,ENE,72,0.0,3.0,91,0.00,,BKN001,0.00,VWS V14.00,2013-07-06 09:21:00,
2013-07-06 03:26:00,46.0,43.5,29.73,ENE,72,0.0,3.0,91,0.00,,BKN001,0.00,VWS V14.00,2013-07-06 09:26:00,
2013-07-06 03:31:00,46.0,43.5,29.73,ENE,72,0.0,3.0,91,0.00,,BKN001,0.00,VWS V14.00,2013-07-06 09:31:00,
2013-07-06 03:36:00,46.2,44.0,29.74,ENE,72,0.0,1.0,92,0.00,,BKN001,0.00,VWS V14.00,2013-07-06 09:36:00,
2013-07-06 03:41:00,46.1,43.9,29.74,ENE,72,0.0,1.0,92,0.00,,BKN001,0.00,VWS V14.00,2013-07-06 09:41:00,
2013-07-06 03:46:00,46.1,43.9,29.74,ENE,72,0.0,1.0,92,0.00,,BKN001,0.00,VWS V14.00,2013-07-06 09:46:00,
2013-07-06 03:51:00,46.2,44.0,29.74,ENE,72,0.0,1.0,92,0.00,,BKN001,0.00,VWS V14.00,2013-07-06 09:51:00,
2013-07-06 03:56:00,46.2,44.0,29.74,ENE,72,0.0,1.0,92,0.00,,BKN001,0.00,VWS V14.00,2013-07-06 09:56:00,
2013-07-06 04:01:00,46.1,43.9,29.74,ENE,70,3.0,4.0,92,0.00,,BKN001,0.00,VWS V14.00,2013-07-06 10:01:00,
2013-07-06 04:06:00,45.9,43.7,29.74,WNW,300,0.0,3.0,92,0.00,,BKN001,0.00,VWS V14.00,2013-07-06 10:06:00,
2013-07-06 04:11:00,46.1,44.2,29.74,WNW,300,0.0,3.0,93,0.00,,BKN001,0.00,VWS V14.00,2013-07-06 10:11:00,
2013-07-06 04:16:00,46.3,44.4,29.74,SE,126,3.0,5.0,93,0.00,,BKN001,0.00,VWS V14.00,2013-07-06 10:16:00,
2013-07-06 04:21:00,46.5,44.3,29.74,South,187,7.0,7.0,92,0.00,,BKN001,0.00,VWS V14.00,2013-07-06 10:21:00,
2013-07-06 04:26:00,45.9,43.7,29.74,SE,145,6.0,8.0,92,0.00,,BKN001,0.00,VWS V14.00,2013-07-06 10:26:00,
2013-07-06 04:31:00,46.0,44.1,29.74,South,177,6.0,8.0,93,0.00,,BKN001,0.00,VWS V14.00,2013-07-06 10:31:00,
2013-07-06 04:36:00,45.8,43.6,29.74,SSW,193,5.0,7.0,92,0.00,,BKN001,0.00,VWS V14.00,2013-07-06 10:36:00,
2013-07-06 04:41:00,45.8,43.6,29.73,SW,218,3.0,10.0,92,0.00,,BKN001,0.00,VWS V14.00,2013-07-06 10:41:00,
2013-07-06 04:46:00,45.8,43.6,29.74,SSW,205,11.0,12.0,92,0.00,,BKN001,0.00,VWS V14.00,2013-07-06 10:46:00,
2013-07-06 04:51:00,46.2,44.0,29.73,SSW,195,7.0,12.0,92,0.00,,BKN001,0.00,VWS V14.00,2013-07-06 10:51:00,
2013-07-06 04:56:00,46.2,43.7,29.74,South,180,7.0,12.0,91,0.00,,BKN001,0.00,VWS V14.00,2013-07-06 10:56:00,
2013-07-06 05:01:00,46.2,43.7,29.74,East,91,0.0,12.0,91,0.00,,BKN001,0.00,VWS V14.00,2013-07-06 11:01:00,
2013-07-06 05:06:00,46.3,43.8,29.74,NE,34,1.0,5.0,91,0.00,,BKN001,0.00,VWS V14.00,2013-07-06 11:06:00,
2013-07-06 05:11:00,46.2,43.7,29.75,NE,34,0.0,5.0,91,0.00,,BKN001,0.00,VWS V14.00,2013-07-06 11:11:00,
2013-07-06 05:16:00,46.0,43.5,29.75,NE,34,0.0,5.0,91,0.00,,BKN001,0.00,VWS V14.00,2013-07-06 11:16:00,
2013-07-06 05:21:00,45.8,43.3,29.75,NE,34,0.0,5.0,91,0.00,,BKN001,0.00,VWS V14.00,2013-07-06 11:21:00,
2013-07-06 05:26:00,45.6,42.8,29.75,NE,34,1.0,5.0,90,0.00,,BKN001,0.00,VWS V14.00,2013-07-06 11:26:00,
2013-07-06 05:31:00,45.4,42.9,29.75,NE,34,0.0,5.0,91,0.00,,BKN001,0.00,VWS V14.00,2013-07-06 11:31:00,
2013-07-06 05:36:00,45.4,42.9,29.75,NE,34,0.0,1.0,91,0.00,,BKN001,0.00,VWS V14.00,2013-07-06 11:36:00,
2013-07-06 05:41:00,45.4,42.9,29.75,NE,34,0.0,1.0,91,0.00,,BKN001,0.00,VWS V14.00,2013-07-06 11:41:00,
2013-07-06 05:46:00,45.4,42.9,29.75,NE,34,0.0,1.0,91,0.00,,BKN001,0.00,VWS V14.00,2013-07-06 11:46:00,
2013-07-06 05:51:00,45.1,42.6,29.75,NE,34,0.0,1.0,91,0.00,,BKN001,0.00,VWS V14.00,2013-07-06 11:51:00,
2013-07-06 05:56:00,45.0,42.5,29.75,NE,34,0.0,1.0,91,0.00,,BKN001,0.00,VWS V14.00,2013-07-06 11:56:00,
2013-07-06 06:01:00,45.0,42.8,29.75,NE,34,0.0,1.0,92,0.00,,BKN001,0.00,VWS V14.00,2013-07-06 12:01:00,
2013-07-06 06:06:00,45.0,42.8,29.76,NE,34,0.0,3.0,92,0.00,,BKN001,0.00,VWS V14.00,2013-07-06 12:06:00,
2013-07-06 06:11:00,45.0,42.8,29.76,NE,34,2.0,3.0,92,0.00,,BKN001,0.00,VWS V14.00,2013-07-06 12:11:00,
2013-07-06 06:16:00,44.5,42.3,29.76,NE,34,0.0,3.0,92,0.00,,BKN001,0.00,VWS V14.00,2013-07-06 12:16:00,
2013-07-06 06:21:00,44.5,42.3,29.77,NE,34,0.0,3.0,92,0.00,,BKN001,0.00,VWS V14.00,2013-07-06 12:21:00,
2013-07-06 06:26:00,44.5,42.3,29.77,NE,34,0.0,3.0,92,0.00,,BKN001,0.00,VWS V14.00,2013-07-06 12:26:00,
2013-07-06 06:31:00,44.5,42.3,29.77,NE,34,2.0,3.0,92,0.00,,BKN001,0.00,VWS V14.00,2013-07-06 12:31:00,
2013-07-06 06:36:00,44.6,42.4,29.77,NE,34,0.0,1.0,92,0.00,,BKN001,0.00,VWS V14.00,2013-07-06 12:36:00,
2013-07-06 06:41:00,44.3,42.1,29.77,NE,34,0.0,1.0,92,0.00,,BKN001,0.00,VWS V14.00,2013-07-06 12:41:00,
2013-07-06 06:46:00,44.1,42.2,29.77,NE,34,4.0,4.0,93,0.00,,BKN001,0.00,VWS V14.00,2013-07-06 12:46:00,
2013-07-06 06:51:00,44.6,42.7,29.78,NE,34,2.0,4.0,93,0.00,,BKN001,0.00,VWS V14.00,2013-07-06 12:51:00,
2013-07-06 06:56:00,44.9,43.0,29.78,ENE,65,4.0,5.0,93,0.00,,BKN001,0.00,VWS V14.00,2013-07-06 12:56:00,
2013-07-06 07:01:00,45.4,43.5,29.78,ENE,65,2.0,5.0,93,0.00,,BKN001,0.00,VWS V14.00,2013-07-06 13:01:00,
2013-07-06 07:06:00,45.7,43.8,29.78,ESE,119,0.0,4.0,93,0.00,,BKN001,0.00,VWS V14.00,2013-07-06 13:06:00,
2013-07-06 07:11:00,45.5,43.3,29.78,SSE,160,2.0,5.0,92,0.00,,BKN001,0.00,VWS V14.00,2013-07-06 13:11:00,
2013-07-06 07:16:00,45.4,43.2,29.78,South,174,2.0,5.0,92,0.00,,BKN001,0.00,VWS V14.00,2013-07-06 13:16:00,
2013-07-06 07:21:00,45.7,43.5,29.78,South,175,3.0,5.0,92,0.00,,BKN001,0.00,VWS V14.00,2013-07-06 13:21:00,
2013-07-06 07:26:00,46.0,43.8,29.78,SSE,148,3.0,6.0,92,0.00,,BKN001,0.00,VWS V14.00,2013-07-06 13:26:00,
2013-07-06 07:31:00,46.6,44.4,29.79,SSE,156,2.0,6.0,92,0.00,,BKN001,0.00,VWS V14.00,2013-07-06 13:31:00,
2013-07-06 07:36:00,47.5,45.3,29.78,SSW,201,8.0,9.0,92,0.00,,BKN001,0.00,VWS V14.00,2013-07-06 13:36:00,
2013-07-06 07:41:00,48.3,45.8,29.78,SW,225,9.0,12.0,91,0.00,,BKN001,0.00,VWS V14.00,2013-07-06 13:41:00,
2013-07-06 07:46:00,48.9,46.4,29.78,SSE,152,9.0,12.0,91,0.00,,BKN001,0.00,VWS V14.00,2013-07-06 13:46:00,
2013-07-06 07:51:00,49.3,46.2,29.78,SSE,161,8.0,12.0,89,0.00,,BKN001,0.00,VWS V14.00,2013-07-06 13:51:00,
2013-07-06 07:56:00,50.1,46.4,29.77,SSE,153,6.0,12.0,87,0.00,,BKN001,0.00,VWS V14.00,2013-07-06 13:56:00,
2013-07-06 08:01:00,50.9,46.6,29.78,SSE,164,6.0,12.0,85,0.00,,BKN001,0.00,VWS V14.00,2013-07-06 14:01:00,
2013-07-06 08:06:00,51.3,46.6,29.78,SE,127,5.0,10.0,84,0.00,,BKN001,0.00,VWS V14.00,2013-07-06 14:06:00,
2013-07-06 08:11:00,51.6,46.3,29.78,SE,133,5.0,11.0,82,0.00,,BKN001,0.00,VWS V14.00,2013-07-06 14:11:00,
2013-07-06 08:16:00,52.1,45.8,29.78,ESE,122,7.0,12.0,79,0.00,,BKN001,0.00,VWS V14.00,2013-07-06 14:16:00,
2013-07-06 08:21:00,52.5,46.2,29.78,ENE,63,7.0,12.0,79,0.00,,BKN001,0.00,VWS V14.00,2013-07-06 14:21:00,
2013-07-06 08:26:00,53.0,46.3,29.78,NE,47,4.0,12.0,78,0.00,,BKN001,0.00,VWS V14.00,2013-07-06 14:26:00,
2013-07-06 08:31:00,53.2,46.5,29.78,NE,44,0.0,12.0,78,0.00,,BKN001,0.00,VWS V14.00,2013-07-06 14:31:00,
2013-07-06 08:36:00,53.3,46.6,29.78,NE,44,0.0,1.0,78,0.00,,BKN001,0.00,VWS V14.00,2013-07-06 14:36:00,
2013-07-06 08:41:00,53.1,46.4,29.78,NE,44,0.0,1.0,78,0.00,,BKN001,0.00,VWS V14.00,2013-07-06 14:41:00,
2013-07-06 08:46:00,53.2,46.9,29.78,NE,44,0.0,1.0,79,0.00,,BKN001,0.00,VWS V14.00,2013-07-06 14:46:00,
2013-07-06 08:51:00,53.3,47.0,29.78,NE,45,0.0,2.0,79,0.00,,BKN001,0.00,VWS V14.00,2013-07-06 14:51:00,
2013-07-06 08:56:00,53.4,46.7,29.78,NE,45,0.0,2.0,78,0.00,,BKN001,0.00,VWS V14.00,2013-07-06 14:56:00,
2013-07-06 09:01:00,53.5,46.5,29.78,NE,45,0.0,2.0,77,0.00,,BKN001,0.00,VWS V14.00,2013-07-06 15:01:00,
2013-07-06 09:06:00,53.9,47.2,29.78,NE,45,0.0,2.0,78,0.00,,BKN001,0.00,VWS V14.00,2013-07-06 15:06:00,
2013-07-06 09:11:00,54.8,47.7,29.78,NE,45,0.0,2.0,77,0.00,,BKN001,0.00,VWS V14.00,2013-07-06 15:11:00,
2013-07-06 09:16:00,55.5,47.7,29.78,NE,45,0.0,2.0,75,0.00,,BKN001,0.00,VWS V14.00,2013-07-06 15:16:00,
2013-07-06 09:21:00,55.6,47.1,29.78,NE,45,0.0,2.0,73,0.00,,BKN001,0.00,VWS V14.00,2013-07-06 15:21:00,
2013-07-06 09:26:00,55.1,46.6,29.78,NE,45,0.0,2.0,73,0.00,,BKN001,0.00,VWS V14.00,2013-07-06 15:26:00,
2013-07-06 09:31:00,54.5,46.8,29.77,NE,45,0.0,2.0,75,0.00,,BKN001,0.00,VWS V14.00,2013-07-06 15:31:00,
2013-07-06 09:36:00,54.5,46.8,29.78,NE,45,0.0,0.0,75,0.00,,BKN001,0.00,VWS V14.00,2013-07-06 15:36:00,
2013-07-06 09:41:00,55.3,47.9,29.78,NE,45,0.0,0.0,76,0.00,,BKN001,0.00,VWS V14.00,2013-07-06 15:41:00,
2013-07-06 09:46:00,56.6,48.1,29.77,NE,45,0.0,3.0,73,0.00,,BKN001,0.00,VWS V14.00,2013-07-06 15:46:00,
2013-07-06 09:51:00,58.1,48.8,29.77,NE,45,0.0,3.0,71,0.00,,BKN001,0.00,VWS V14.00,2013-07-06 15:51:00,
2013-07-06 09:56:00,58.1,48.4,29.77,NE,45,0.0,3.0,70,0.00,,BKN001,0.00,VWS V14.00,2013-07-06 15:56:00,
2013-07-06 10:01:00,58.0,47.5,29.76,South,184,4.0,8.0,68,0.00,,BKN001,0.00,VWS V14.00,2013-07-06 16:01:00,
2013-07-06 10:06:00,58.5,47.2,29.76,SW,229,7.0,9.0,66,0.00,,BKN001,0.00,VWS V14.00,2013-07-06 16:06:00,
2013-07-06 10:11:00,59.0,47.3,29.75,South,179,4.0,9.0,65,0.00,,BKN001,0.00,VWS V14.00,2013-07-06 16:11:00,
2013-07-06 10:16:00,59.0,47.3,29.75,South,187,6.0,10.0,65,0.00,,BKN001,0.00,VWS V14.00,2013-07-06 16:16:00,
2013-07-06 10:21:00,59.8,48.8,29.75,South,190,6.0,11.0,67,0.00,,BKN001,0.00,VWS V14.00,2013-07-06 16:21:00,
2013-07-06 10:27:00,60.5,48.7,29.74,SSE,154,9.0,11.0,65,0.00,,BKN001,0.00,VWS V14.00,2013-07-06 16:27:00,
2013-07-06 10:32:00,61.3,49.0,29.75,SSE,167,5.0,11.0,64,0.00,,BKN001,0.00,VWS V14.00,2013-07-06 16:32:00,
2013-07-06 10:37:00,62.4,48.8,29.74,SSW,205,9.0,12.0,61,0.00,,BKN001,0.00,VWS V14.00,2013-07-06 16:37:00,
2013-07-06 10:42:00,63.7,47.2,29.74,SSW,194,8.0,12.0,55,0.00,,BKN001,0.00,VWS V14.00,2013-07-06 16:42:00,
2013-07-06 10:47:00,64.0,45.5,29.74,South,181,6.0,12.0,51,0.00,,BKN001,0.00,VWS V14.00,2013-07-06 16:47:00,
2013-07-06 10:54:00,65.9,47.8,29.73,SSW,204,8.0,12.0,52,0.00,,BKN001,0.00,VWS V14.00,2013-07-06 16:54:00,
2013-07-06 10:59:00,66.5,46.2,29.73,SSE,150,7.0,12.0,48,0.00,,BKN001,0.00,VWS V14.00,2013-07-06 16:59:00,
2013-07-06 11:04:00,67.3,44.7,29.73,ESE,120,5.0,9.0,44,0.00,,BKN001,0.00,VWS V14.00,2013-07-06 17:04:00,
2013-07-06 11:09:00,68.0,45.9,29.73,SSW,205,5.0,9.0,45,0.00,,BKN001,0.00,VWS V14.00,2013-07-06 17:09:00,
2013-07-06 11:15:00,68.6,45.2,29.72,SSW,195,0.0,9.0,43,0.00,,BKN001,0.00,VWS V14.00,2013-07-06 17:15:00,
2013-07-06 11:20:00,68.9,46.1,29.72,SW,222,2.0,9.0,44,0.00,,BKN001,0.00,VWS V14.00,2013-07-06 17:20:00,
2013-07-06 11:25:00,69.9,45.2,29.72,SSW,196,4.0,10.0,41,0.00,,BKN001,0.00,VWS V14.00,2013-07-06 17:25:00,
2013-07-06 11:30:00,69.3,45.9,29.72,South,189,6.0,10.0,43,0.00,,BKN001,0.00,VWS V14.00,2013-07-06 17:30:00,
2013-07-06 11:35:00,69.4,45.3,29.72,SSE,167,4.0,6.0,42,0.00,,BKN001,0.00,VWS V14.00,2013-07-06 17:35:00,
2013-07-06 11:40:00,70.4,44.3,29.72,SSE,168,5.0,7.0,39,0.00,,BKN001,0.00,VWS V14.00,2013-07-06 17:40:00,
2013-07-06 11:46:00,71.0,44.8,29.72,SSE,159,3.0,7.0,39,0.00,,BKN001,0.00,VWS V14.00,2013-07-06 17:46:00,
2013-07-06 11:51:00,71.3,45.8,29.72,South,189,2.0,7.0,40,0.00,,BKN001,0.00,VWS V14.00,2013-07-06 17:51:00,
2013-07-06 11:56:00,71.8,45.5,29.72,SW,236,2.0,7.0,39,0.00,,BKN001,0.00,VWS V14.00,2013-07-06 17:56:00,
2013-07-06 12:01:00,71.3,44.4,29.72,NW,307,3.0,7.0,38,0.00,,BKN001,0.00,VWS V14.00,2013-07-06 18:01:00,
2013-07-06 12:07:00,71.8,44.8,29.71,WNW,290,0.0,3.0,38,0.00,,BKN001,0.00,VWS V14.00,2013-07-06 18:07:00,
2013-07-06 12:12:00,73.3,44.0,29.71,NW,319,0.0,3.0,35,0.00,,BKN001,0.00,VWS V14.00,2013-07-06 18:12:00,
2013-07-06 12:17:00,75.2,44.9,29.71,NW,319,0.0,3.0,34,0.00,,BKN001,0.00,VWS V14.00,2013-07-06 18:17:00,
2013-07-06 12:22:00,75.7,44.6,29.71,East,87,2.0,3.0,33,0.00,,BKN001,0.00,VWS V14.00,2013-07-06 18:22:00,
2013-07-06 12:28:00,74.9,44.7,29.71,East,87,0.0,3.0,34,0.00,,BKN001,0.00,VWS V14.00,2013-07-06 18:28:00,
2013-07-06 12:33:00,73.9,44.5,29.71,East,87,2.0,2.0,35,0.00,,BKN001,0.00,VWS V14.00,2013-07-06 18:33:00,
2013-07-06 12:38:00,73.5,43.4,29.71,NE,46,2.0,7.0,34,0.00,,BKN001,0.00,VWS V14.00,2013-07-06 18:38:00,
2013-07-06 12:43:00,72.9,43.7,29.71,NE,46,0.0,7.0,35,0.00,,BKN001,0.00,VWS V14.00,2013-07-06 18:43:00,
2013-07-06 12:49:00,73.0,43.8,29.71,NE,46,0.0,7.0,35,0.00,,BKN001,0.00,VWS V14.00,2013-07-06 18:49:00,
2013-07-06 12:54:00,73.3,44.8,29.70,NE,46,0.0,7.0,36,0.00,,BKN001,0.00,VWS V14.00,2013-07-06 18:54:00,
2013-07-06 12:59:00,73.8,45.2,29.70,NE,34,8.0,8.0,36,0.00,,BKN001,0.00,VWS V14.00,2013-07-06 18:59:00,
2013-07-06 13:05:00,74.0,45.4,29.70,NE,34,2.0,5.0,36,0.00,,BKN001,0.00,VWS V14.00,2013-07-06 19:05:00,
2013-07-06 13:10:00,74.6,44.4,29.70,NE,34,2.0,6.0,34,0.00,,BKN001,0.00,VWS V14.00,2013-07-06 19:10:00,
2013-07-06 13:15:00,75.2,44.2,29.70,NE,34,3.0,6.0,33,0.00,,BKN001,0.00,VWS V14.00,2013-07-06 19:15:00,
2013-07-06 13:20:00,75.1,44.1,29.70,NE,39,6.0,7.0,33,0.00,,BKN001,0.00,VWS V14.00,2013-07-06 19:20:00,
2013-07-06 13:26:00,74.4,43.5,29.70,NE,35,3.0,8.0,33,0.00,,BKN001,0.00,VWS V14.00,2013-07-06 19:26:00,
2013-07-06 13:31:00,74.1,44.0,29.69,NE,36,3.0,8.0,34,0.00,,BKN001,0.00,VWS V14.00,2013-07-06 19:31:00,
2013-07-06 13:37:00,74.1,44.0,29.69,North,4,0.0,8.0,34,0.00,,BKN001,0.00,VWS V14.00,2013-07-06 19:37:00,
2013-07-06 13:42:00,74.4,43.5,29.69,NNE,28,2.0,8.0,33,0.00,,BKN001,0.00,VWS V14.00,2013-07-06 19:42:00,
2013-07-06 13:47:00,74.6,44.4,29.69,NNE,30,3.0,10.0,34,0.00,,BKN001,0.00,VWS V14.00,2013-07-06 19:47:00,
2013-07-06 13:52:00,74.9,43.9,29.69,NNE,33,5.0,10.0,33,0.00,,BKN001,0.00,VWS V14.00,2013-07-06 19:52:00,
2013-07-06 13:58:00,74.6,42.8,29.69,NE,34,1.0,10.0,32,0.00,,BKN001,0.00,VWS V14.00,2013-07-06 19:58:00,
2013-07-06 14:03:00,74.2,43.3,29.69,NE,34,4.0,5.0,33,0.00,,BKN001,0.00,VWS V14.00,2013-07-06 20:03:00,
2013-07-06 14:08:00,73.6,43.5,29.68,NNE,30,5.0,10.0,34,0.00,,BKN001,0.00,VWS V14.00,2013-07-06 20:08:00,
2013-07-06 14:14:00,72.8,42.0,29.68,NNE,28,1.0,10.0,33,0.00,,BKN001,0.00,VWS V14.00,2013-07-06 20:14:00,
2013-07-06 14:19:00,72.7,42.7,29.68,NNE,28,0.0,10.0,34,0.00,,BKN001,0.00,VWS V14.00,2013-07-06 20:19:00,
2013-07-06 14:24:00,72.7,42.7,29.68,NNE,28,1.0,10.0,34,0.00,,BKN001,0.00,VWS V14.00,2013-07-06 20:24:00,
2013-07-06 14:30:00,72.8,42.8,29.68,NNE,28,0.0,10.0,34,0.00,,BKN001,0.00,VWS V14.00,2013-07-06 20:30:00,
2013-07-06 14:36:00,73.1,43.1,29.67,NNE,28,0.0,1.0,34,0.00,,BKN001,0.00,VWS V14.00,2013-07-06 20:36:00,
2013-07-06 14:41:00,73.6,42.8,29.67,NNE,28,1.0,5.0,33,0.00,,BKN001,0.00,VWS V14.00,2013-07-06 20:41:00,
2013-07-06 14:46:00,73.9,43.0,29.67,NNE,28,0.0,5.0,33,0.00,,BKN001,0.00,VWS V14.00,2013-07-06 20:46:00,
2013-07-06 14:52:00,74.0,42.3,29.67,NNE,31,3.0,5.0,32,0.00,,BKN001,0.00,VWS V14.00,2013-07-06 20:52:00,
2013-07-06 14:57:00,73.7,43.6,29.67,NNW,340,2.0,5.0,34,0.00,,BKN001,0.00,VWS V14.00,2013-07-06 20:57:00,
2013-07-06 15:03:00,72.8,44.3,29.67,NNE,14,2.0,2.0,36,0.00,,BKN001,0.00,VWS V14.00,2013-07-06 21:03:00,
2013-07-06 15:09:00,72.0,43.6,29.67,NE,40,8.0,10.0,36,0.00,,BKN001,0.00,VWS V14.00,2013-07-06 21:09:00,
2013-07-06 15:14:00,70.3,46.8,29.67,ENE,65,8.0,10.0,43,0.00,,BKN001,0.00,VWS V14.00,2013-07-06 21:14:00,
2013-07-06 15:19:00,69.1,43.8,29.67,ENE,71,7.0,11.0,40,0.00,,BKN001,0.00,VWS V14.00,2013-07-06 21:19:00,
2013-07-06 15:24:00,68.8,45.4,29.68,NE,48,5.0,11.0,43,0.00,,BKN001,0.00,VWS V14.00,2013-07-06 21:24:00,
2013-07-06 15:30:00,68.7,44.1,29.67,NE,45,2.0,11.0,41,0.00,,BKN001,0.00,VWS V14.00,2013-07-06 21:30:00,
2013-07-06 15:35:00,68.5,44.5,29.67,NE,56,5.0,7.0,42,0.00,,BKN001,0.00,VWS V14.00,2013-07-06 21:35:00,
2013-07-06 15:41:00,68.4,43.8,29.67,NE,38,11.0,14.0,41,0.00,,BKN001,0.00,VWS V14.00,2013-07-06 21:41:00,
2013-07-06 15:46:00,68.2,43.0,29.67,NE,40,12.0,15.0,40,0.00,,BKN001,0.00,VWS V14.00,2013-07-06 21:46:00,
2013-07-06 15:51:00,68.0,42.8,29.68,ENE,60,7.0,15.0,40,0.00,,BKN001,0.00,VWS V14.00,2013-07-06 21:51:00,
2013-07-06 15:56:00,67.9,44.6,29.69,NE,44,0.0,15.0,43,0.00,,BKN001,0.00,VWS V14.00,2013-07-06 21:56:00,
2013-07-06 16:02:00,67.3,47.5,29.69,South,177,6.0,15.0,49,0.00,,BKN001,0.00,VWS V14.00,2013-07-06 22:02:00,
2013-07-06 16:07:00,66.5,46.8,29.68,NE,34,1.0,7.0,49,0.00,,BKN001,0.00,VWS V14.00,2013-07-06 22:07:00,
2013-07-06 16:12:00,66.0,44.7,29.69,NE,34,0.0,7.0,46,0.00,,BKN001,0.00,VWS V14.00,2013-07-06 22:12:00,
2013-07-06 16:17:00,66.1,47.5,29.69,NE,34,0.0,7.0,51,0.00,,BKN001,0.00,VWS V14.00,2013-07-06 22:17:00,
2013-07-06 16:22:00,66.0,49.4,29.69,North,356,0.0,7.0,55,0.00,,BKN001,0.00,VWS V14.00,2013-07-06 22:22:00,
2013-07-06 16:28:00,65.3,50.2,29.68,ENE,61,5.0,7.0,58,0.01,,BKN001,0.01,VWS V14.00,2013-07-06 22:28:00,
2013-07-06 16:33:00,63.7,50.5,29.67,NE,45,2.0,4.0,62,0.01,,BKN001,0.01,VWS V14.00,2013-07-06 22:33:00,
2013-07-06 16:38:00,63.2,50.0,29.67,NNW,340,3.0,7.0,62,0.01,,BKN001,0.01,VWS V14.00,2013-07-06 22:38:00,
2013-07-06 16:43:00,63.4,47.5,29.67,WNW,300,0.0,7.0,56,0.01,,BKN001,0.01,VWS V14.00,2013-07-06 22:43:00,
2013-07-06 16:48:00,63.9,50.2,29.67,WNW,301,0.0,7.0,61,0.01,,BKN001,0.01,VWS V14.00,2013-07-06 22:48:00,
2013-07-06 16:53:00,63.9,50.2,29.67,North,356,2.0,7.0,61,0.01,,BKN001,0.01,VWS V14.00,2013-07-06 22:53:00,
2013-07-06 16:58:00,63.9,48.8,29.67,NNE,13,2.0,7.0,58,0.01,,BKN001,0.01,VWS V14.00,2013-07-06 22:58:00,
2013-07-06 17:04:00,64.1,48.6,29.67,NNE,13,0.0,0.0,57,0.01,,BKN001,0.01,VWS V14.00,2013-07-06 23:04:00,
2013-07-06 17:09:00,64.7,49.1,29.67,NNE,13,0.0,1.0,57,0.01,,BKN001,0.01,VWS V14.00,2013-07-06 23:09:00,
2013-07-06 17:14:00,65.1,48.1,29.67,NNE,13,0.0,1.0,54,0.01,,BKN001,0.01,VWS V14.00,2013-07-06 23:14:00,
2013-07-06 17:21:00,65.2,48.6,29.67,NNE,13,0.0,1.0,55,0.01,,BKN001,0.01,VWS V14.00,2013-07-06 23:21:00,
2013-07-06 17:26:00,65.1,50.0,29.67,NNE,13,0.0,1.0,58,0.01,,BKN001,0.01,VWS V14.00,2013-07-06 23:26:00,
2013-07-06 17:31:00,65.1,51.8,29.67,NNE,13,0.0,1.0,62,0.01,,BKN001,0.01,VWS V14.00,2013-07-06 23:31:00,
2013-07-06 17:37:00,64.7,52.3,29.68,West,264,4.0,4.0,64,0.00,,BKN001,0.01,VWS V14.00,2013-07-06 23:37:00,
2013-07-06 17:42:00,64.1,46.6,29.67,SSE,161,4.0,9.0,53,0.00,,BKN001,0.01,VWS V14.00,2013-07-06 23:42:00,
2013-07-06 17:47:00,63.6,47.6,29.67,East,84,3.0,9.0,56,0.00,,BKN001,0.01,VWS V14.00,2013-07-06 23:47:00,
2013-07-06 17:52:00,63.5,49.4,29.67,North,352,1.0,9.0,60,0.00,,BKN001,0.01,VWS V14.00,2013-07-06 23:52:00,
2013-07-06 17:58:00,63.5,46.6,29.67,North,351,0.0,11.0,54,0.00,,BKN001,0.01,VWS V14.00,2013-07-06 23:58:00,
2013-07-06 18:04:00,63.8,44.3,29.67,WSW,250,9.0,9.0,49,0.00,,BKN001,0.01,VWS V14.00,2013-07-07 00:04:00,
2013-07-06 18:09:00,65.0,47.0,29.67,ESE,104,7.0,9.0,52,0.00,,BKN001,0.01,VWS V14.00,2013-07-07 00:09:00,
2013-07-06 18:14:00,65.0,48.0,29.67,East,91,0.0,9.0,54,0.00,,BKN001,0.01,VWS V14.00,2013-07-07 00:14:00,
2013-07-06 18:19:00,64.8,48.8,29.67,ESE,115,0.0,9.0,56,0.00,,BKN001,0.01,VWS V14.00,2013-07-07 00:19:00,
2013-07-06 18:24:00,64.3,48.3,29.67,ENE,63,0.0,9.0,56,0.00,,BKN001,0.01,VWS V14.00,2013-07-07 00:24:00,
2013-07-06 18:29:00,64.1,49.0,29.67,ENE,63,0.0,9.0,58,0.00,,BKN001,0.01,VWS V14.00,2013-07-07 00:29:00,
2013-07-06 18:34:00,63.5,49.4,29.66,WSW,244,7.0,7.0,60,0.00,,BKN001,0.01,VWS V14.00,2013-07-07 00:34:00,
2013-07-06 18:39:00,62.7,49.1,29.66,WSW,243,7.0,12.0,61,0.00,,BKN001,0.01,VWS V14.00,2013-07-07 00:39:00,
2013-07-06 18:44:00,62.3,48.7,29.66,WSW,255,2.0,12.0,61,0.00,,BKN001,0.01,VWS V14.00,2013-07-07 00:44:00,
2013-07-06 18:50:00,62.3,48.7,29.67,WSW,255,0.0,12.0,61,0.00,,BKN001,0.01,VWS V14.00,2013-07-07 00:50:00,
2013-07-06 18:55:00,62.3,48.2,29.67,ENE,58,4.0,12.0,60,0.00,,BKN001,0.01,VWS V14.00,2013-07-07 00:55:00,
2013-07-06 19:01:00,62.5,48.4,29.68,ENE,59,5.0,12.0,60,0.00,,BKN001,0.01,VWS V14.00,2013-07-07 01:01:00,
2013-07-06 19:06:00,62.6,47.2,29.69,SW,214,4.0,9.0,57,0.00,,BKN001,0.01,VWS V14.00,2013-07-07 01:06:00,
2013-07-06 19:11:00,62.7,46.8,29.70,West,269,10.0,14.0,56,0.00,,BKN001,0.01,VWS V14.00,2013-07-07 01:11:00,
2013-07-06 19:16:00,64.0,45.0,29.70,West,273,15.0,33.0,50,0.01,,BKN001,0.02,VWS V14.00,2013-07-07 01:16:00,
2013-07-06 19:22:00,63.5,45.6,29.70,SW,222,9.0,33.0,52,0.01,,BKN001,0.02,VWS V14.00,2013-07-07 01:22:00,
2013-07-06 19:28:00,63.6,44.6,29.70,North,5,1.0,33.0,50,0.01,,BKN001,0.02,VWS V14.00,2013-07-07 01:28:00,
2013-07-06 19:33:00,63.1,45.2,29.71,West,269,23.0,23.0,52,0.01,,BKN001,0.02,VWS V14.00,2013-07-07 01:33:00,
2013-07-06 19:38:00,62.8,43.4,29.72,SW,230,5.0,26.0,49,0.01,,BKN001,0.02,VWS V14.00,2013-07-07 01:38:00,
2013-07-06 19:43:00,63.1,44.2,29.72,NW,304,6.0,26.0,50,0.01,,BKN001,0.02,VWS V14.00,2013-07-07 01:43:00,
2013-07-06 19:48:00,61.6,45.8,29.72,WSW,253,18.0,26.0,56,0.01,,BKN001,0.02,VWS V14.00,2013-07-07 01:48:00,
2013-07-06 19:54:00,59.6,45.7,29.73,West,266,10.0,26.0,60,0.01,,BKN001,0.02,VWS V14.00,2013-07-07 01:54:00,
2013-07-06 20:00:00,60.2,45.4,29.73,West,266,11.0,26.0,58,0.01,,BKN001,0.02,VWS V14.00,2013-07-07 02:00:00,
2013-07-06 20:05:00,59.5,46.5,29.74,SSW,203,13.0,20.0,62,0.01,,BKN001,0.02,VWS V14.00,2013-07-07 02:05:00,
2013-07-06 20:12:00,59.2,44.9,29.74,ESE,118,13.0,20.0,59,0.01,,BKN001,0.02,VWS V14.00,2013-07-07 02:12:00,
2013-07-06 20:17:00,59.9,45.5,29.74,ESE,121,8.0,21.0,59,0.01,,BKN001,0.02,VWS V14.00,2013-07-07 02:17:00,
2013-07-06 20:22:00,59.5,45.6,29.75,SW,225,3.0,21.0,60,0.01,,BKN001,0.02,VWS V14.00,2013-07-07 02:22:00,
2013-07-06 20:27:00,59.2,45.8,29.75,SSE,153,5.0,21.0,61,0.01,,BKN001,0.02,VWS V14.00,2013-07-07 02:27:00,
2013-07-06 20:32:00,59.0,46.8,29.75,SE,135,7.0,11.0,64,0.00,,BKN001,0.02,VWS V14.00,2013-07-07 02:32:00,
2013-07-06 20:38:00,59.0,45.2,29.75,ESE,121,12.0,16.0,60,0.00,,BKN001,0.02,VWS V14.00,2013-07-07 02:38:00,
2013-07-06 20:43:00,58.5,47.2,29.75,SE,146,10.0,17.0,66,0.00,,BKN001,0.02,VWS V14.00,2013-07-07 02:43:00,
2013-07-06 20:49:00,57.5,47.4,29.75,SSW,207,8.0,17.0,69,0.00,,BKN001,0.02,VWS V14.00,2013-07-07 02:49:00,
2013-07-06 20:54:00,56.8,47.1,29.75,SW,228,9.0,17.0,70,0.00,,BKN001,0.02,VWS V14.00,2013-07-07 02:54:00,
2013-07-06 20:59:00,57.4,46.9,29.75,SW,233,12.0,17.0,68,0.00,,BKN001,0.02,VWS V14.00,2013-07-07 02:59:00,
2013-07-06 21:05:00,57.7,46.8,29.76,SW,231,8.0,14.0,67,0.00,,BKN001,0.02,VWS V14.00,2013-07-07 03:05:00,
2013-07-06 21:10:00,57.4,46.2,29.76,South,174,10.0,15.0,66,0.00,,BKN001,0.02,VWS V14.00,2013-07-07 03:10:00,
2013-07-06 21:15:00,57.3,46.0,29.77,South,169,7.0,15.0,66,0.00,,BKN001,0.02,VWS V14.00,2013-07-07 03:15:00,
2013-07-06 21:20:00,56.6,46.9,29.77,SE,128,7.0,15.0,70,0.00,,BKN001,0.02,VWS V14.00,2013-07-07 03:20:00,
2013-07-06 21:26:00,56.8,46.8,29.77,SE,142,11.0,15.0,69,0.00,,BKN001,0.02,VWS V14.00,2013-07-07 03:26:00,
2013-07-06 21:32:00,57.0,46.9,29.78,ESE,117,12.0,15.0,69,0.00,,BKN001,0.02,VWS V14.00,2013-07-07 03:32:00,
2013-07-06 21:37:00,57.7,46.4,29.78,SE,129,7.0,14.0,66,0.00,,BKN001,0.02,VWS V14.00,2013-07-07 03:37:00,
2013-07-06 21:43:00,57.7,46.8,29.78,SE,146,8.0,14.0,67,0.00,,BKN001,0.02,VWS V14.00,2013-07-07 03:43:00,
2013-07-06 21:49:00,56.8,47.5,29.78,SSE,155,8.0,14.0,71,0.00,,BKN001,0.02,VWS V14.00,2013-07-07 03:49:00,
2013-07-06 21:54:00,55.9,47.4,29.78,SE,142,5.0,14.0,73,0.00,,BKN001,0.02,VWS V14.00,2013-07-07 03:54:00,
2013-07-06 22:00:00,55.6,47.8,29.78,SE,142,6.0,14.0,75,0.00,,BKN001,0.02,VWS V14.00,2013-07-07 04:00:00,
2013-07-06 22:01:00,55.7,47.9,29.78,SE,131,6.0,14.0,75,0.00,,BKN001,0.02,VWS V14.00,2013-07-07 04:01:00,
2013-07-06 22:06:00,55.7,47.9,29.78,SE,127,3.0,6.0,75,0.00,,BKN001,0.02,VWS V14.00,2013-07-07 04:06:00,
2013-07-06 22:11:00,55.8,47.7,29.79,SE,132,6.0,9.0,74,0.00,,BKN001,0.02,VWS V14.00,2013-07-07 04:11:00,
2013-07-06 22:16:00,55.6,47.8,29.79,SSE,153,4.0,9.0,75,0.00,,BKN001,0.02,VWS V14.00,2013-07-07 04:16:00,
2013-07-06 22:21:00,55.5,47.7,29.80,SSE,158,3.0,9.0,75,0.00,,BKN001,0.02,VWS V14.00,2013-07-07 04:21:00,
2013-07-06 22:26:00,55.5,47.4,29.80,SE,141,5.0,9.0,74,0.00,,BKN001,0.02,VWS V14.00,2013-07-07 04:26:00,
2013-07-06 22:31:00,55.8,47.3,29.80,SE,137,3.0,9.0,73,0.00,,BKN001,0.02,VWS V14.00,2013-07-07 04:31:00,
2013-07-06 22:36:00,55.6,47.5,29.81,SSW,205,6.0,7.0,74,0.00,,BKN001,0.02,VWS V14.00,2013-07-07 04:36:00,
2013-07-06 22:41:00,55.9,47.7,29.81,SW,220,7.0,9.0,74,0.00,,BKN001,0.02,VWS V14.00,2013-07-07 04:41:00,
2013-07-06 22:46:00,55.6,47.5,29.81,SSW,212,7.0,9.0,74,0.00,,BKN001,0.02,VWS V14.00,2013-07-07 04:46:00,
2013-07-06 22:51:00,55.2,47.4,29.81,SW,235,6.0,9.0,75,0.00,,BKN001,0.02,VWS V14.00,2013-07-07 04:51:00,
2013-07-06 22:56:00,55.0,47.6,29.81,SW,229,7.0,9.0,76,0.00,,BKN001,0.02,VWS V14.00,2013-07-07 04:56:00,
2013-07-06 23:01:00,54.4,47.3,29.81,South,171,5.0,9.0,77,0.00,,BKN001,0.02,VWS V14.00,2013-07-07 05:01:00,
2013-07-06 23:06:00,53.8,47.1,29.81,SW,221,5.0,7.0,78,0.00,,BKN001,0.02,VWS V14.00,2013-07-07 05:06:00,
2013-07-06 23:11:00,53.6,46.9,29.82,SSE,167,5.0,7.0,78,0.00,,BKN001,0.02,VWS V14.00,2013-07-07 05:11:00,
2013-07-06 23:16:00,53.8,46.8,29.82,South,177,6.0,7.0,77,0.00,,BKN001,0.02,VWS V14.00,2013-07-07 05:16:00,
2013-07-06 23:21:00,53.9,46.9,29.82,SSE,150,5.0,8.0,77,0.00,,BKN001,0.02,VWS V14.00,2013-07-07 05:21:00,
2013-07-06 23:26:00,54.0,47.0,29.82,SSE,149,10.0,13.0,77,0.00,,BKN001,0.02,VWS V14.00,2013-07-07 05:26:00,
2013-07-06 23:31:00,53.7,47.0,29.82,SE,134,10.0,13.0,78,0.00,,BKN001,0.02,VWS V14.00,2013-07-07 05:31:00,
2013-07-06 23:36:00,53.7,46.7,29.82,SE,141,8.0,13.0,77,0.00,,BKN001,0.02,VWS V14.00,2013-07-07 05:36:00,
2013-07-06 23:41:00,54.1,46.7,29.82,SSE,149,5.0,13.0,76,0.00,,BKN001,0.02,VWS V14.00,2013-07-07 05:41:00,
2013-07-06 23:46:00,53.2,46.5,29.81,SSE,153,8.0,13.0,78,0.00,,BKN001,0.02,VWS V14.00,2013-07-07 05:46:00,
2013-07-06 23:51:00,53.4,46.7,29.82,South,174,8.0,13.0,78,0.00,,BKN001,0.02,VWS V14.00,2013-07-07 05:51:00,
2013-07-06 23:56:00,53.5,46.5,29.82,SSE,148,8.0,13.0,77,0.00,,BKN001,0.02,VWS V14.00,2013-07-07 05:56:00,